Time;durP1;ratioP1;P1;durP2;ratioP2;P2;SDS_P1;SDS_P2;PMS_P1;PMS_P2;Temp;Humidity;BMP_temperature;BMP_pressure;BME280_temperature;BME280_humidity;BME280_pressure;Samples;Min_cycle;Max_cycle;Signal;HPM_P1;HPM_P2
2021/04/07 00:00:11;;;;;;;;;;;-0.70;99.90;;;;;;5065990;28;19908;-72
2021/04/07 00:02:36;;;;;;;;;;;-0.70;99.90;;;;;;5061076;28;20297;-72
2021/04/07 00:05:08;;;;;;;;;;;-0.80;99.90;;;;;;5063193;28;19908;-72
2021/04/07 00:07:34;;;;;;;;;;;-0.80;99.90;;;;;;5061190;28;20417;-72
2021/04/07 00:10:00;;;;;;;;;;;-0.90;99.90;;;;;;5052881;28;19948;-72
2021/04/07 00:12:25;;;;;;;;;;;-0.90;99.90;;;;;;5056135;28;20003;-72
2021/04/07 00:14:51;;;;;;;;;;;-0.90;99.90;;;;;;5055430;28;19920;-72
2021/04/07 00:17:16;;;;;;;;;;;-0.90;99.90;;;;;;5052073;28;19912;-72
2021/04/07 00:19:42;;;;;;;;;;;-0.90;99.90;;;;;;5064045;28;19909;-72
2021/04/07 00:22:07;;;;;;;;;;;-0.90;99.90;;;;;;5071636;28;19915;-72
2021/04/07 00:24:33;;;;;;;;;;;-0.90;99.90;;;;;;5069756;28;19908;-72
2021/04/07 00:27:05;;;;;;;;;;;-0.90;99.90;;;;;;5051873;28;20015;-72
2021/04/07 00:29:31;;;;;;;;;;;-0.90;99.90;;;;;;5052194;28;20002;-72
2021/04/07 00:31:56;;;;;;;;;;;-0.90;99.90;;;;;;5065715;28;19944;-72
2021/04/07 00:34:21;;;;;;;;;;;-0.90;99.90;;;;;;5059841;28;20290;-72
2021/04/07 00:36:47;;;;;;;;;;;-0.90;99.90;;;;;;5062150;28;20013;-71
2021/04/07 00:39:12;;;;;;;;;;;-0.90;99.90;;;;;;5050918;28;19916;-72
2021/04/07 00:41:38;;;;;;;;;;;-1.00;99.90;;;;;;5065617;28;19915;-72
2021/04/07 00:44:04;;;;;;;;;;;-1.00;99.90;;;;;;5064077;28;19935;-72
2021/04/07 00:46:35;;;;;;;;;;;-1.00;99.90;;;;;;5065525;28;19917;-72
2021/04/07 00:49:01;;;;;;;;;;;-1.00;99.90;;;;;;5067713;28;19912;-72
2021/04/07 00:51:27;;;;;;;;;;;-1.10;99.90;;;;;;5057597;28;19955;-73
2021/04/07 00:53:52;;;;;;;;;;;-1.10;99.90;;;;;;5064880;28;19916;-73
2021/04/07 00:56:18;;;;;;;;;;;-1.10;99.90;;;;;;5063819;28;19908;-73
2021/04/07 00:58:43;;;;;;;;;;;-1.10;99.90;;;;;;5056184;28;19959;-73
2021/04/07 01:01:09;;;;;;;;;;;-1.10;99.90;;;;;;5051935;28;19915;-73
2021/04/07 01:03:34;;;;;;;;;;;-1.10;99.90;;;;;;5058625;28;19915;-73
2021/04/07 01:06:00;;;;;;;;;;;-1.00;99.90;;;;;;5051050;28;19970;-73
2021/04/07 01:08:25;;;;;;;;;;;-1.00;99.90;;;;;;5058214;28;19913;-73
2021/04/07 01:10:52;;;;;;;;;;;-1.00;99.90;;;;;;5064799;28;19955;-73
2021/04/07 01:13:17;;;;;;;;;;;-1.00;99.90;;;;;;5063301;28;19940;-73
2021/04/07 01:15:43;;;;;;;;;;;-0.90;99.90;;;;;;5064056;28;20345;-73
2021/04/07 01:18:09;;;;;;;;;;;-0.90;99.90;;;;;;5058703;28;20019;-73
2021/04/07 01:20:34;;;;;;;;;;;-0.90;99.90;;;;;;5077286;28;19909;-73
2021/04/07 01:23:00;;;;;;;;;;;-0.90;99.90;;;;;;5064516;28;19944;-73
2021/04/07 01:25:26;;;;;;;;;;;-0.90;99.90;;;;;;5062250;28;19977;-73
2021/04/07 01:27:53;;;;;;;;;;;-1.00;99.90;;;;;;5063230;28;19924;-73
2021/04/07 01:30:18;;;;;;;;;;;-1.00;99.90;;;;;;5059875;28;19912;-73
2021/04/07 01:32:44;;;;;;;;;;;-1.00;99.90;;;;;;5055495;28;19961;-73
2021/04/07 01:35:11;;;;;;;;;;;-1.00;99.90;;;;;;5064284;28;19916;-74
2021/04/07 01:37:37;;;;;;;;;;;-1.10;99.90;;;;;;5070094;28;19958;-73
2021/04/07 01:40:04;;;;;;;;;;;-1.10;99.90;;;;;;5070605;28;20382;-73
2021/04/07 01:42:30;;;;;;;;;;;-1.10;99.90;;;;;;5070504;28;19913;-73
2021/04/07 01:44:56;;;;;;;;;;;-1.10;99.90;;;;;;5060128;28;19909;-73
2021/04/07 01:47:21;;;;;;;;;;;-1.10;99.90;;;;;;5050625;28;19919;-73
2021/04/07 01:49:48;;;;;;;;;;;-1.20;99.90;;;;;;5059740;28;19934;-73
2021/04/07 01:52:13;;;;;;;;;;;-1.20;99.90;;;;;;5054191;28;20436;-73
2021/04/07 01:54:39;;;;;;;;;;;-1.20;99.90;;;;;;5060538;28;19944;-73
2021/04/07 01:57:07;;;;;;;;;;;-1.20;99.90;;;;;;5060375;28;19912;-73
2021/04/07 01:59:32;;;;;;;;;;;-1.20;99.90;;;;;;5060248;28;20003;-73
2021/04/07 02:01:58;;;;;;;;;;;-1.20;99.90;;;;;;5070204;28;19948;-73
2021/04/07 02:04:24;;;;;;;;;;;-1.20;99.90;;;;;;5070392;28;20304;-73
2021/04/07 02:06:50;;;;;;;;;;;-1.20;99.90;;;;;;5060297;28;19919;-73
2021/04/07 02:09:17;;;;;;;;;;;-1.10;99.90;;;;;;5057373;28;20004;-73
2021/04/07 02:11:46;;;;;;;;;;;-1.10;99.90;;;;;;5063997;28;19908;-73
2021/04/07 02:14:12;;;;;;;;;;;-1.10;99.90;;;;;;5059436;28;19912;-73
2021/04/07 02:16:37;;;;;;;;;;;-1.10;99.90;;;;;;5054473;28;20136;-73
2021/04/07 02:19:09;;;;;;;;;;;-1.10;99.90;;;;;;5067278;28;19919;-73
2021/04/07 02:21:38;;;;;;;;;;;-1.10;99.90;;;;;;5063871;28;20320;-73
2021/04/07 02:24:03;;;;;;;;;;;-1.10;99.90;;;;;;5070189;28;19919;-73
2021/04/07 02:26:29;;;;;;;;;;;-1.10;99.90;;;;;;5062599;28;19913;-73
2021/04/07 02:28:55;;;;;;;;;;;-1.10;99.90;;;;;;5070673;28;19916;-73
2021/04/07 02:31:20;;;;;;;;;;;-1.10;99.90;;;;;;5057072;28;19913;-73
2021/04/07 02:33:46;;;;;;;;;;;-1.10;99.90;;;;;;5068419;28;19908;-73
2021/04/07 02:36:11;;;;;;;;;;;-1.10;99.90;;;;;;5061524;28;20377;-73
2021/04/07 02:38:37;;;;;;;;;;;-1.10;99.90;;;;;;5050620;28;19995;-73
2021/04/07 02:41:02;;;;;;;;;;;-1.10;99.90;;;;;;5056769;28;19909;-73
2021/04/07 02:43:28;;;;;;;;;;;-1.10;99.90;;;;;;5071828;28;19913;-73
2021/04/07 02:45:53;;;;;;;;;;;-1.10;99.90;;;;;;5060661;28;20008;-73
2021/04/07 02:48:19;;;;;;;;;;;-1.10;99.90;;;;;;5067488;28;19916;-73
2021/04/07 02:50:44;;;;;;;;;;;-1.10;99.90;;;;;;5063575;28;19908;-73
2021/04/07 02:53:10;;;;;;;;;;;-1.10;99.90;;;;;;5072136;28;19935;-73
2021/04/07 02:55:36;;;;;;;;;;;-1.10;99.90;;;;;;5066514;28;20289;-73
2021/04/07 02:58:01;;;;;;;;;;;-1.10;99.90;;;;;;5066592;28;19919;-73
2021/04/07 03:00:27;;;;;;;;;;;-1.10;99.90;;;;;;5073543;28;19908;-73
2021/04/07 03:02:52;;;;;;;;;;;-1.10;99.90;;;;;;5055135;28;20259;-73
2021/04/07 03:05:18;;;;;;;;;;;-1.00;99.90;;;;;;5054054;28;20324;-73
2021/04/07 03:07:43;;;;;;;;;;;-1.00;99.90;;;;;;5065639;28;19916;-73
2021/04/07 03:10:10;;;;;;;;;;;-1.00;99.90;;;;;;5067134;28;19909;-73
2021/04/07 03:12:35;;;;;;;;;;;-1.00;99.90;;;;;;5071380;28;19908;-73
2021/04/07 03:15:01;;;;;;;;;;;-1.00;99.90;;;;;;5060064;28;19957;-73
2021/04/07 03:17:26;;;;;;;;;;;-1.00;99.90;;;;;;5064529;28;19912;-73
2021/04/07 03:19:52;;;;;;;;;;;-1.00;99.90;;;;;;5068994;28;19908;-73
2021/04/07 03:22:17;;;;;;;;;;;-0.90;99.90;;;;;;5066832;28;19916;-73
2021/04/07 03:24:43;;;;;;;;;;;-0.90;99.90;;;;;;5057807;28;19913;-73
2021/04/07 03:27:08;;;;;;;;;;;-0.90;99.90;;;;;;5065264;28;20366;-73
2021/04/07 03:29:34;;;;;;;;;;;-0.90;99.90;;;;;;5064284;28;20385;-73
2021/04/07 03:31:59;;;;;;;;;;;-0.90;99.90;;;;;;5065664;28;20059;-73
2021/04/07 03:34:25;;;;;;;;;;;-0.90;99.90;;;;;;5062835;28;19908;-73
2021/04/07 03:36:50;;;;;;;;;;;-0.90;99.90;;;;;;5056514;28;19917;-73
2021/04/07 03:39:16;;;;;;;;;;;-0.90;99.90;;;;;;5059744;28;19908;-73
2021/04/07 03:41:41;;;;;;;;;;;-0.90;99.90;;;;;;5061480;28;19913;-73
2021/04/07 03:44:07;;;;;;;;;;;-0.90;99.90;;;;;;5073456;28;19955;-73
2021/04/07 03:46:32;;;;;;;;;;;-0.90;99.90;;;;;;5057452;28;19916;-74
2021/04/07 03:48:57;;;;;;;;;;;-0.80;99.90;;;;;;5057694;28;19908;-73
2021/04/07 03:51:23;;;;;;;;;;;-0.80;99.90;;;;;;5070360;28;20360;-73
2021/04/07 03:53:49;;;;;;;;;;;-0.90;99.90;;;;;;5058850;28;19912;-73
2021/04/07 03:56:14;;;;;;;;;;;-0.90;99.90;;;;;;5064996;28;19931;-73
2021/04/07 03:58:40;;;;;;;;;;;-0.90;99.90;;;;;;5059531;28;19912;-73
2021/04/07 04:01:05;;;;;;;;;;;-0.80;99.90;;;;;;5059551;28;20271;-73
2021/04/07 04:03:31;;;;;;;;;;;-0.80;99.90;;;;;;5059049;28;19913;-73
2021/04/07 04:05:56;;;;;;;;;;;-0.90;99.90;;;;;;5058523;28;20358;-73
2021/04/07 04:08:22;;;;;;;;;;;-0.80;99.90;;;;;;5071634;28;20011;-73
2021/04/07 04:10:47;;;;;;;;;;;-0.80;99.90;;;;;;5066743;28;19913;-73
2021/04/07 04:13:13;;;;;;;;;;;-0.90;99.90;;;;;;5059135;28;19912;-73
2021/04/07 04:15:39;;;;;;;;;;;-0.90;99.90;;;;;;5063493;28;20051;-73
2021/04/07 04:18:08;;;;;;;;;;;-0.90;99.90;;;;;;5060977;28;20393;-73
2021/04/07 04:20:33;;;;;;;;;;;-0.90;99.90;;;;;;5069871;28;20069;-73
2021/04/07 04:22:59;;;;;;;;;;;-1.00;99.90;;;;;;5071930;28;20421;-73
2021/04/07 04:25:24;;;;;;;;;;;-1.00;99.90;;;;;;5060502;28;20018;-73
2021/04/07 04:27:50;;;;;;;;;;;-1.00;99.90;;;;;;5058011;28;19913;-73
2021/04/07 04:30:16;;;;;;;;;;;-1.00;99.90;;;;;;5063184;28;20404;-73
2021/04/07 04:32:42;;;;;;;;;;;-0.90;99.90;;;;;;5065057;28;19913;-73
2021/04/07 04:35:08;;;;;;;;;;;-0.90;99.90;;;;;;5064630;28;19916;-73
2021/04/07 04:37:34;;;;;;;;;;;-0.90;99.90;;;;;;5057530;28;19912;-73
2021/04/07 04:40:00;;;;;;;;;;;-0.90;99.90;;;;;;5061619;28;19935;-73
2021/04/07 04:42:25;;;;;;;;;;;-0.90;99.90;;;;;;5058677;28;19908;-73
2021/04/07 04:44:51;;;;;;;;;;;-0.90;99.90;;;;;;5058811;28;20293;-73
2021/04/07 04:47:17;;;;;;;;;;;-0.90;99.90;;;;;;5058013;28;20262;-73
2021/04/07 04:49:43;;;;;;;;;;;-0.80;99.90;;;;;;5063176;28;19914;-73
2021/04/07 04:52:08;;;;;;;;;;;-0.80;99.90;;;;;;5069199;28;20357;-73
2021/04/07 04:54:34;;;;;;;;;;;-0.80;99.90;;;;;;5064801;28;19961;-73
2021/04/07 04:56:59;;;;;;;;;;;-0.80;99.90;;;;;;5070931;28;19908;-73
2021/04/07 04:59:25;;;;;;;;;;;-0.80;99.90;;;;;;5056728;28;20001;-73
2021/04/07 05:01:50;;;;;;;;;;;-0.80;99.90;;;;;;5056766;28;20055;-73
2021/04/07 05:04:16;;;;;;;;;;;-0.80;99.90;;;;;;5059599;28;19909;-73
2021/04/07 05:06:41;;;;;;;;;;;-0.80;99.90;;;;;;5069897;28;20022;-73
2021/04/07 05:09:07;;;;;;;;;;;-0.80;99.90;;;;;;5070934;28;19908;-73
2021/04/07 05:11:36;;;;;;;;;;;-0.80;99.90;;;;;;5064234;28;19915;-73
2021/04/07 05:14:02;;;;;;;;;;;-0.80;99.90;;;;;;5064512;28;20274;-73
2021/04/07 05:16:28;;;;;;;;;;;-0.80;99.90;;;;;;5070342;28;19908;-73
2021/04/07 05:18:53;;;;;;;;;;;-0.80;99.90;;;;;;5058033;28;19931;-73
2021/04/07 05:21:19;;;;;;;;;;;-0.80;99.90;;;;;;5071159;28;20369;-73
2021/04/07 05:23:44;;;;;;;;;;;-0.80;99.90;;;;;;5060911;28;19912;-73
2021/04/07 05:26:10;;;;;;;;;;;-0.70;99.90;;;;;;5055170;28;19909;-73
2021/04/07 05:28:36;;;;;;;;;;;-0.70;99.90;;;;;;5064591;28;19923;-73
2021/04/07 05:31:02;;;;;;;;;;;-0.70;99.90;;;;;;5063496;28;19913;-73
2021/04/07 05:33:32;;;;;;;;;;;-0.60;99.90;;;;;;5065346;28;19909;-74
2021/04/07 05:35:58;;;;;;;;;;;-0.60;99.90;;;;;;5062856;28;19917;-73
2021/04/07 05:38:24;;;;;;;;;;;-0.60;99.90;;;;;;5057085;28;20366;-73
2021/04/07 05:40:51;;;;;;;;;;;-0.70;99.90;;;;;;5050514;28;19924;-73
2021/04/07 05:43:16;;;;;;;;;;;-0.70;99.90;;;;;;5063169;28;19909;-73
2021/04/07 05:45:42;;;;;;;;;;;-0.70;99.90;;;;;;5057922;28;20415;-73
2021/04/07 05:48:08;;;;;;;;;;;-0.70;99.90;;;;;;5057284;28;19913;-73
2021/04/07 05:50:37;;;;;;;;;;;-0.70;99.90;;;;;;5063939;28;20011;-73
2021/04/07 05:53:02;;;;;;;;;;;-0.70;99.90;;;;;;5068733;28;19915;-73
2021/04/07 05:55:28;;;;;;;;;;;-0.80;99.90;;;;;;5064120;28;19992;-73
2021/04/07 05:57:57;;;;;;;;;;;-0.80;99.90;;;;;;5062989;28;19954;-73
2021/04/07 06:00:23;;;;;;;;;;;-0.90;99.90;;;;;;5055799;28;20292;-74
2021/04/07 06:02:49;;;;;;;;;;;-0.90;99.90;;;;;;5070064;28;19909;-73
2021/04/07 06:05:15;;;;;;;;;;;-0.90;99.90;;;;;;5069059;28;20305;-73
2021/04/07 06:07:40;;;;;;;;;;;-0.90;99.90;;;;;;5069056;28;20308;-73
2021/04/07 06:10:06;;;;;;;;;;;-0.90;99.90;;;;;;5068828;28;19912;-73
2021/04/07 06:12:31;;;;;;;;;;;-0.80;99.90;;;;;;5057002;28;19920;-73
2021/04/07 06:14:57;;;;;;;;;;;-0.80;99.90;;;;;;5070097;28;20345;-73
2021/04/07 06:17:22;;;;;;;;;;;-0.80;99.90;;;;;;5071926;28;19962;-73
2021/04/07 06:19:48;;;;;;;;;;;-0.80;99.90;;;;;;5065188;28;20023;-73
2021/04/07 06:22:13;;;;;;;;;;;-0.70;99.90;;;;;;5070034;28;19913;-73
2021/04/07 06:24:39;;;;;;;;;;;-0.60;99.90;;;;;;5067103;28;20297;-73
2021/04/07 06:27:04;;;;;;;;;;;-0.60;99.90;;;;;;5068072;28;20296;-73
2021/04/07 06:29:30;;;;;;;;;;;-0.50;99.90;;;;;;5060063;28;19913;-73
2021/04/07 06:31:55;;;;;;;;;;;-0.40;99.90;;;;;;5060973;28;19909;-73
2021/04/07 06:34:21;;;;;;;;;;;-0.30;99.90;;;;;;5059910;28;19919;-73
2021/04/07 06:36:46;;;;;;;;;;;-0.20;99.90;;;;;;5061815;28;19943;-73
2021/04/07 06:39:12;;;;;;;;;;;-0.20;99.90;;;;;;5067163;28;19915;-73
2021/04/07 06:41:37;;;;;;;;;;;-0.10;99.90;;;;;;5060635;28;20445;-73
2021/04/07 06:44:03;;;;;;;;;;;-0.10;99.90;;;;;;5066679;28;19912;-73
2021/04/07 06:46:28;;;;;;;;;;;0.00;99.90;;;;;;5060164;28;20054;-73
2021/04/07 06:48:54;;;;;;;;;;;-0.10;99.90;;;;;;5058830;28;19912;-73
2021/04/07 06:51:20;;;;;;;;;;;-0.10;99.90;;;;;;5071022;28;19908;-73
2021/04/07 06:53:49;;;;;;;;;;;0.00;99.90;;;;;;5060387;28;20022;-73
2021/04/07 06:56:14;;;;;;;;;;;0.00;99.90;;;;;;5060132;28;20438;-73
2021/04/07 06:58:40;;;;;;;;;;;0.00;99.90;;;;;;5060485;28;19908;-73
2021/04/07 07:01:05;;;;;;;;;;;0.00;99.90;;;;;;5066709;28;20307;-73
2021/04/07 07:03:31;;;;;;;;;;;0.00;99.90;;;;;;5056341;28;19994;-73
2021/04/07 07:05:58;;;;;;;;;;;0.10;99.90;;;;;;5069712;28;19908;-73
2021/04/07 07:08:23;;;;;;;;;;;0.20;99.90;;;;;;5066974;28;20003;-73
2021/04/07 07:10:50;;;;;;;;;;;0.30;99.90;;;;;;5066597;28;20000;-73
2021/04/07 07:13:25;;;;;;;;;;;0.40;99.90;;;;;;5061424;28;20243;-73
2021/04/07 07:15:51;;;;;;;;;;;0.50;99.90;;;;;;5053468;28;19912;-73
2021/04/07 07:18:20;;;;;;;;;;;0.70;99.90;;;;;;5053053;28;19909;-73
2021/04/07 07:20:46;;;;;;;;;;;0.90;99.90;;;;;;5065237;28;20003;-73
2021/04/07 07:23:19;;;;;;;;;;;0.90;99.90;;;;;;5068406;28;20007;-73
2021/04/07 07:25:53;;;;;;;;;;;0.90;99.90;;;;;;5066971;28;19915;-73
2021/04/07 07:28:18;;;;;;;;;;;1.00;99.90;;;;;;5065932;28;19912;-73
2021/04/07 07:30:45;;;;;;;;;;;1.30;99.70;;;;;;5070225;28;19999;-73
2021/04/07 07:33:18;;;;;;;;;;;1.40;99.20;;;;;;5069984;28;19912;-73
2021/04/07 07:35:45;;;;;;;;;;;1.70;99.20;;;;;;5067483;28;20369;-73
2021/04/07 07:38:11;;;;;;;;;;;2.00;99.10;;;;;;5063615;28;19913;-73
2021/04/07 07:40:36;;;;;;;;;;;2.20;98.70;;;;;;5057814;28;20362;-73
2021/04/07 07:43:02;;;;;;;;;;;2.30;98.80;;;;;;5074103;28;19919;-73
2021/04/07 07:45:29;;;;;;;;;;;2.60;97.70;;;;;;5058294;28;19915;-73
2021/04/07 07:48:03;;;;;;;;;;;2.60;96.50;;;;;;5069563;28;19920;-73
2021/04/07 07:50:33;;;;;;;;;;;2.50;96.30;;;;;;5085030;28;19908;-73
2021/04/07 07:52:59;;;;;;;;;;;2.50;96.20;;;;;;5068921;28;19931;-73
2021/04/07 07:55:24;;;;;;;;;;;2.40;95.90;;;;;;5073381;28;20373;-73
2021/04/07 07:57:50;;;;;;;;;;;2.20;95.80;;;;;;5080572;28;19916;-73
2021/04/07 08:00:16;;;;;;;;;;;2.00;95.60;;;;;;5064108;28;19908;-73
2021/04/07 08:02:42;;;;;;;;;;;1.70;96.10;;;;;;5072539;28;19913;-73
2021/04/07 08:05:17;;;;;;;;;;;1.60;95.60;;;;;;5072683;28;19958;-73
2021/04/07 08:07:42;;;;;;;;;;;1.50;95.90;;;;;;5068854;28;19913;-73
2021/04/07 08:10:08;;;;;;;;;;;1.30;96.10;;;;;;5051159;28;19954;-73
2021/04/07 08:12:34;;;;;;;;;;;1.10;96.40;;;;;;5075575;28;20066;-73
2021/04/07 08:15:00;;;;;;;;;;;1.30;97.20;;;;;;5076355;28;20317;-73
2021/04/07 08:17:27;;;;;;;;;;;1.50;97.10;;;;;;5072292;28;19909;-73
2021/04/07 08:19:53;;;;;;;;;;;1.50;97.00;;;;;;5067657;28;20366;-73
2021/04/07 08:22:19;;;;;;;;;;;1.80;97.40;;;;;;5069049;28;19916;-73
2021/04/07 08:24:45;;;;;;;;;;;2.10;97.30;;;;;;5071979;28;19951;-73
2021/04/07 08:27:10;;;;;;;;;;;2.40;97.10;;;;;;5074398;28;20361;-73
2021/04/07 08:29:37;;;;;;;;;;;2.40;95.90;;;;;;5076497;28;19995;-73
2021/04/07 08:32:03;;;;;;;;;;;2.20;96.60;;;;;;5071394;28;20396;-73
2021/04/07 08:34:29;;;;;;;;;;;2.10;97.20;;;;;;5070919;28;19908;-73
2021/04/07 08:36:54;;;;;;;;;;;1.90;97.40;;;;;;5067001;28;19917;-73
2021/04/07 08:39:20;;;;;;;;;;;1.90;97.80;;;;;;5068141;28;19908;-73
2021/04/07 08:41:46;;;;;;;;;;;2.10;97.80;;;;;;5068197;28;20373;-73
2021/04/07 08:44:12;;;;;;;;;;;2.20;98.10;;;;;;5070640;28;20388;-73
2021/04/07 08:46:50;;;;;;;;;;;2.20;97.20;;;;;;5071628;28;19908;-73
2021/04/07 08:49:32;;;;;;;;;;;2.00;96.90;;;;;;5071827;28;20383;-73
2021/04/07 08:51:57;;;;;;;;;;;1.80;97.00;;;;;;5068573;28;19995;-73
2021/04/07 08:54:23;;;;;;;;;;;1.70;97.90;;;;;;5076194;28;20023;-73
2021/04/07 08:56:53;;;;;;;;;;;1.80;97.80;;;;;;5071624;28;20088;-73
2021/04/07 08:59:22;;;;;;;;;;;1.90;98.40;;;;;;5065585;28;19913;-73
2021/04/07 09:01:47;;;;;;;;;;;2.10;98.50;;;;;;5075478;28;19916;-73
2021/04/07 09:04:18;;;;;;;;;;;2.20;98.20;;;;;;5054176;28;19908;-73
2021/04/07 09:07:00;;;;;;;;;;;2.10;97.70;;;;;;5067532;28;20377;-73
2021/04/07 09:09:26;;;;;;;;;;;1.90;98.50;;;;;;5065770;28;19915;-73
2021/04/07 09:11:52;;;;;;;;;;;1.80;98.70;;;;;;5050799;28;19991;-73
2021/04/07 09:14:18;;;;;;;;;;;1.80;99.50;;;;;;5049609;28;20457;-73
2021/04/07 09:16:44;;;;;;;;;;;1.90;99.50;;;;;;5068251;28;19999;-73
2021/04/07 09:19:23;;;;;;;;;;;1.90;99.90;;;;;;5067671;28;20047;-73
2021/04/07 09:21:52;;;;;;;;;;;1.90;99.90;;;;;;5062355;28;19970;-73
2021/04/07 09:24:20;;;;;;;;;;;1.80;99.90;;;;;;5061143;28;19948;-73
2021/04/07 09:26:47;;;;;;;;;;;1.70;99.90;;;;;;5056331;28;19913;-74
2021/04/07 09:29:14;;;;;;;;;;;1.80;99.90;;;;;;5054331;28;20330;-73
2021/04/07 09:31:39;;;;;;;;;;;2.00;99.90;;;;;;5065309;28;20376;-74
2021/04/07 09:34:05;;;;;;;;;;;2.20;99.90;;;;;;5059895;28;19913;-73
2021/04/07 09:36:31;;;;;;;;;;;2.50;99.90;;;;;;5060546;28;19921;-73
2021/04/07 09:38:58;;;;;;;;;;;2.70;99.70;;;;;;5067330;28;19909;-73
2021/04/07 09:41:25;;;;;;;;;;;2.80;99.90;;;;;;5084635;28;19944;-73
2021/04/07 09:43:50;;;;;;;;;;;2.80;98.50;;;;;;5076250;28;19912;-73
2021/04/07 09:46:16;;;;;;;;;;;2.90;98.10;;;;;;5067489;28;20427;-73
2021/04/07 09:48:42;;;;;;;;;;;3.00;97.30;;;;;;5056560;28;20381;-73
2021/04/07 09:51:26;;;;;;;;;;;3.40;97.30;;;;;;5058271;28;19923;-73
2021/04/07 09:53:52;;;;;;;;;;;3.70;95.80;;;;;;5074546;28;19919;-73
2021/04/07 09:56:18;;;;;;;;;;;4.00;95.00;;;;;;5056729;28;19908;-74
2021/04/07 09:58:48;;;;;;;;;;;4.20;94.80;;;;;;5056282;28;20401;-73
2021/04/07 10:01:17;;;;;;;;;;;4.80;94.90;;;;;;5060545;28;19959;-75
2021/04/07 10:03:49;;;;;;;;;;;5.10;93.60;;;;;;5067198;28;19928;-75
2021/04/07 10:06:22;;;;;;;;;;;5.10;93.30;;;;;;5058079;28;19970;-74
2021/04/07 10:09:00;;;;;;;;;;;5.40;93.30;;;;;;5059490;28;19917;-74
2021/04/07 10:11:26;;;;;;;;;;;5.50;91.30;;;;;;5066962;28;19912;-73
2021/04/07 10:13:51;;;;;;;;;;;5.30;91.80;;;;;;5063975;28;19916;-74
2021/04/07 10:16:17;;;;;;;;;;;4.90;91.60;;;;;;5066105;28;19924;-75
2021/04/07 10:18:46;;;;;;;;;;;4.60;91.50;;;;;;5073004;28;20003;-74
2021/04/07 10:21:18;;;;;;;;;;;4.20;92.60;;;;;;5070950;28;20018;-74
2021/04/07 10:23:46;;;;;;;;;;;3.80;93.20;;;;;;5061867;28;19916;-74
2021/04/07 10:26:12;;;;;;;;;;;3.60;94.60;;;;;;5067468;28;19912;-74
2021/04/07 10:28:37;;;;;;;;;;;3.40;94.30;;;;;;5064746;28;19971;-74
2021/04/07 10:31:07;;;;;;;;;;;3.20;94.50;;;;;;5063149;28;20296;-74
2021/04/07 10:33:33;;;;;;;;;;;3.00;94.30;;;;;;5062064;28;20285;-74
2021/04/07 10:35:59;;;;;;;;;;;2.90;94.20;;;;;;5075497;28;19921;-74
2021/04/07 10:38:28;;;;;;;;;;;2.80;93.60;;;;;;5074121;28;19991;-74
2021/04/07 10:40:58;;;;;;;;;;;2.70;93.00;;;;;;5066572;28;20373;-75
2021/04/07 10:43:28;;;;;;;;;;;2.70;93.10;;;;;;5071088;28;19912;-74
2021/04/07 10:45:58;;;;;;;;;;;2.80;93.30;;;;;;5075411;28;20384;-74
2021/04/07 10:48:24;;;;;;;;;;;3.00;93.00;;;;;;5070565;28;19920;-74
2021/04/07 10:50:49;;;;;;;;;;;3.30;93.50;;;;;;5082925;28;19912;-74
2021/04/07 10:53:15;;;;;;;;;;;3.50;93.70;;;;;;5081220;28;19995;-74
2021/04/07 10:55:40;;;;;;;;;;;3.80;93.40;;;;;;5067733;28;19923;-74
2021/04/07 10:58:06;;;;;;;;;;;4.10;93.40;;;;;;5072836;28;19909;-74
2021/04/07 11:00:38;;;;;;;;;;;4.40;92.90;;;;;;5064509;28;19917;-74
2021/04/07 11:03:04;;;;;;;;;;;4.50;92.20;;;;;;5070188;28;20345;-74
2021/04/07 11:05:40;;;;;;;;;;;4.50;92.10;;;;;;5064572;28;19913;-75
2021/04/07 11:08:07;;;;;;;;;;;4.50;91.90;;;;;;5062511;28;20195;-74
2021/04/07 11:10:49;;;;;;;;;;;4.70;91.90;;;;;;5055821;28;19908;-74
2021/04/07 11:13:16;;;;;;;;;;;5.00;91.40;;;;;;5061368;28;19909;-74
2021/04/07 11:15:41;;;;;;;;;;;5.10;90.90;;;;;;5067793;28;19913;-74
2021/04/07 11:18:07;;;;;;;;;;;4.80;89.40;;;;;;5056006;28;19909;-75
2021/04/07 11:20:33;;;;;;;;;;;4.50;90.10;;;;;;5064040;28;19940;-77
2021/04/07 11:22:58;;;;;;;;;;;4.30;90.70;;;;;;5058723;28;19913;-75
2021/04/07 11:25:24;;;;;;;;;;;4.50;91.90;;;;;;5053977;28;19913;-74
2021/04/07 11:27:56;;;;;;;;;;;4.60;91.30;;;;;;5058521;28;20348;-74
2021/04/07 11:30:22;;;;;;;;;;;4.80;91.10;;;;;;5059890;28;19913;-74
2021/04/07 11:32:50;;;;;;;;;;;4.90;90.90;;;;;;5070752;28;20400;-74
2021/04/07 11:36:02;;;;;;;;;;;5.00;88.60;;;;;;5054542;28;19913;-74
2021/04/07 11:38:06;;;;;;;;;;;5.10;89.20;;;;;;5059317;28;19912;-74
2021/04/07 11:43:03;;;;;;;;;;;5.00;85.70;;;;;;5062802;28;20010;-74
2021/04/07 11:45:28;;;;;;;;;;;5.20;88.40;;;;;;5053189;28;20015;-74
2021/04/07 11:47:54;;;;;;;;;;;5.70;87.70;;;;;;5065053;28;20448;-74
2021/04/07 11:50:19;;;;;;;;;;;5.70;86.00;;;;;;5052068;28;19908;-76
2021/04/07 11:52:45;;;;;;;;;;;5.50;85.80;;;;;;5055501;28;19943;-74
2021/04/07 11:55:10;;;;;;;;;;;5.20;84.60;;;;;;5059517;28;19974;-74
2021/04/07 11:57:36;;;;;;;;;;;5.00;85.70;;;;;;5053688;28;19913;-75
2021/04/07 12:00:01;;;;;;;;;;;4.80;85.50;;;;;;5058724;28;19960;-76
2021/04/07 12:02:27;;;;;;;;;;;4.70;84.40;;;;;;5063970;28;20379;-74
2021/04/07 12:04:53;;;;;;;;;;;4.30;86.00;;;;;;5052634;28;19913;-74
2021/04/07 12:07:19;;;;;;;;;;;4.20;85.40;;;;;;5050855;28;20355;-74
2021/04/07 12:09:44;;;;;;;;;;;4.30;85.60;;;;;;5057322;28;19908;-74
2021/04/07 12:12:10;;;;;;;;;;;4.40;84.20;;;;;;5059433;28;19909;-76
2021/04/07 12:14:35;;;;;;;;;;;4.30;85.60;;;;;;5052427;28;19922;-74
2021/04/07 12:17:01;;;;;;;;;;;4.20;86.00;;;;;;5059438;28;19912;-74
2021/04/07 12:19:26;;;;;;;;;;;4.20;87.00;;;;;;5061477;28;20369;-74
2021/04/07 12:21:52;;;;;;;;;;;4.30;86.80;;;;;;5055929;28;20289;-77
2021/04/07 12:24:18;;;;;;;;;;;4.50;88.90;;;;;;5057682;28;20319;-77
2021/04/07 12:26:43;;;;;;;;;;;4.70;89.40;;;;;;5054725;28;19909;-74
2021/04/07 12:29:10;;;;;;;;;;;4.80;88.60;;;;;;5057471;28;19909;-74
2021/04/07 12:31:35;;;;;;;;;;;4.80;90.20;;;;;;5061957;28;20357;-74
2021/04/07 12:34:01;;;;;;;;;;;4.70;90.60;;;;;;5052736;28;19967;-74
2021/04/07 12:36:28;;;;;;;;;;;4.50;91.00;;;;;;5054677;28;20019;-74
2021/04/07 12:38:55;;;;;;;;;;;4.50;91.20;;;;;;5056058;28;20296;-74
2021/04/07 12:43:47;;;;;;;;;;;4.70;90.70;;;;;;5050085;28;20385;-74
2021/04/07 12:46:12;;;;;;;;;;;4.80;90.70;;;;;;5058525;28;19954;-74
2021/04/07 12:48:38;;;;;;;;;;;4.80;90.90;;;;;;5058217;28;20157;-74
2021/04/07 12:51:04;;;;;;;;;;;4.90;90.60;;;;;;5064626;28;20004;-74
2021/04/07 12:53:29;;;;;;;;;;;4.80;91.00;;;;;;5053269;28;19913;-75
2021/04/07 12:55:55;;;;;;;;;;;4.60;90.20;;;;;;5049057;28;19951;-75
2021/04/07 12:58:20;;;;;;;;;;;4.30;90.20;;;;;;5059348;28;19919;-74
2021/04/07 13:00:46;;;;;;;;;;;4.20;90.00;;;;;;5058997;28;20579;-74
2021/04/07 13:03:13;;;;;;;;;;;4.30;90.80;;;;;;5053849;28;19916;-74
2021/04/07 13:05:39;;;;;;;;;;;4.20;90.30;;;;;;5054651;28;19918;-74
2021/04/07 13:08:05;;;;;;;;;;;4.10;90.80;;;;;;5058471;28;20312;-74
2021/04/07 13:10:36;;;;;;;;;;;4.10;90.50;;;;;;5051717;28;19916;-74
2021/04/07 13:13:02;;;;;;;;;;;4.10;90.80;;;;;;5063021;28;19912;-74
2021/04/07 13:15:27;;;;;;;;;;;4.10;91.00;;;;;;5058295;28;19931;-74
2021/04/07 13:17:53;;;;;;;;;;;4.20;91.30;;;;;;5055846;28;19912;-74
2021/04/07 13:20:20;;;;;;;;;;;4.10;90.80;;;;;;5057850;28;19908;-74
2021/04/07 13:22:46;;;;;;;;;;;3.90;91.10;;;;;;5055652;28;19909;-74
2021/04/07 13:25:12;;;;;;;;;;;3.80;91.70;;;;;;5049674;28;20014;-74
2021/04/07 13:27:38;;;;;;;;;;;3.80;90.80;;;;;;5048631;28;20429;-74
2021/04/07 13:30:05;;;;;;;;;;;3.90;91.60;;;;;;5051664;28;19917;-74
2021/04/07 13:32:31;;;;;;;;;;;3.90;91.20;;;;;;5058523;28;19952;-73
2021/04/07 13:37:37;;;;;;;;;;;3.90;91.30;;;;;;5054492;28;19920;-73
2021/04/07 13:43:02;;;;;;;;;;;3.90;91.50;;;;;;5055561;28;19962;-74
2021/04/07 13:45:24;;;;;;;;;;;3.70;91.10;;;;;;5069969;28;19909;-74
2021/04/07 13:47:51;;;;;;;;;;;3.60;91.60;;;;;;5048662;28;19920;-74
2021/04/07 13:50:17;;;;;;;;;;;3.40;92.00;;;;;;5053495;28;19951;-74
2021/04/07 13:52:42;;;;;;;;;;;3.40;92.20;;;;;;5053312;28;19959;-74
2021/04/07 13:55:08;;;;;;;;;;;3.30;92.50;;;;;;5055304;28;20476;-74
2021/04/07 13:57:34;;;;;;;;;;;3.30;92.80;;;;;;5057688;28;20357;-74
2021/04/07 14:00:00;;;;;;;;;;;3.30;92.60;;;;;;5052542;28;19961;-73
2021/04/07 14:02:29;;;;;;;;;;;3.40;92.70;;;;;;5060814;28;19952;-74
2021/04/07 14:04:55;;;;;;;;;;;3.40;92.00;;;;;;5056209;28;19909;-74
2021/04/07 14:07:20;;;;;;;;;;;3.30;92.30;;;;;;5055529;28;19912;-73
2021/04/07 14:09:47;;;;;;;;;;;3.20;92.30;;;;;;5054697;28;19908;-74
2021/04/07 14:12:13;;;;;;;;;;;3.10;92.70;;;;;;5047785;28;19908;-73
2021/04/07 14:14:39;;;;;;;;;;;2.90;92.60;;;;;;5052420;28;19963;-73
2021/04/07 14:17:05;;;;;;;;;;;2.80;92.60;;;;;;5058437;28;20326;-73
2021/04/07 14:19:30;;;;;;;;;;;2.70;92.70;;;;;;5052588;28;19909;-74
2021/04/07 14:21:56;;;;;;;;;;;2.60;93.00;;;;;;5053925;28;20365;-73
2021/04/07 14:24:21;;;;;;;;;;;2.50;93.30;;;;;;5056479;28;19979;-73
2021/04/07 14:26:47;;;;;;;;;;;2.50;93.20;;;;;;5058370;28;19909;-73
2021/04/07 14:29:12;;;;;;;;;;;2.50;93.30;;;;;;5063609;28;20009;-73